createdAt,value
2022-09-23T00:01:11.990Z,100.00
2022-09-23T00:07:03.092Z,100.00
2022-09-23T00:09:50.708Z,100.00
2022-09-23T00:12:46.384Z,100.00
2022-09-23T00:15:25.192Z,100.00
2022-09-23T00:18:29.545Z,100.00
2022-09-23T00:21:18.260Z,100.00
2022-09-23T00:23:59.006Z,99.88
2022-09-23T00:26:33.456Z,99.57
2022-09-23T00:29:30.452Z,98.82
2022-09-23T00:32:07.326Z,98.42
2022-09-23T00:34:49.462Z,98.15
2022-09-23T00:37:32.269Z,97.67
2022-09-23T00:43:21.150Z,97.13
2022-09-23T00:46:07.594Z,96.80
2022-09-23T00:48:54.000Z,96.79
2022-09-23T00:51:56.616Z,95.77
2022-09-23T00:57:54.758Z,94.12
2022-09-23T01:00:53.520Z,93.44
2022-09-23T01:04:02.145Z,93.33
2022-09-23T01:06:55.152Z,93.19
2022-09-23T01:09:48.454Z,93.75
2022-09-23T01:16:01.801Z,92.97
2022-09-23T01:18:56.852Z,93.49
2022-09-23T01:21:55.200Z,92.27
2022-09-23T01:25:09.702Z,91.64
2022-09-23T01:28:02.085Z,91.57
2022-09-23T01:33:59.308Z,90.71
2022-09-23T01:36:46.746Z,90.75
2022-09-23T01:39:30.807Z,90.54
2022-09-23T01:42:11.461Z,90.27
2022-09-23T01:44:56.038Z,89.37
2022-09-23T01:47:42.437Z,88.32
2022-09-23T01:50:43.472Z,88.88
2022-09-23T01:53:24.095Z,88.59
2022-09-23T01:59:14.840Z,87.42
2022-09-23T02:02:09.328Z,86.91
2022-09-23T02:05:09.045Z,87.54
2022-09-23T02:07:57.770Z,87.59
2022-09-23T02:10:41.825Z,86.65
2022-09-23T02:13:27.433Z,85.77
2022-09-23T02:16:26.842Z,85.40
2022-09-23T02:19:12.459Z,85.05
2022-09-23T02:22:05.068Z,85.18
2022-09-23T02:27:58.180Z,84.84
2022-09-23T02:30:39.734Z,85.26
2022-09-23T02:33:37.429Z,84.86
2022-09-23T02:36:24.111Z,84.79
2022-09-23T02:39:10.209Z,84.54
2022-09-23T02:42:11.739Z,84.42
2022-09-23T02:44:57.854Z,84.64
2022-09-23T02:47:53.632Z,84.28
2022-09-23T02:50:30.463Z,84.56
2022-09-23T02:53:17.157Z,84.00
2022-09-23T02:56:15.019Z,83.81
2022-09-23T02:58:51.135Z,83.31
2022-09-23T03:02:03.146Z,82.79
2022-09-23T03:04:53.591Z,81.79
2022-09-23T03:07:49.482Z,81.78
2022-09-23T03:10:43.464Z,81.62
2022-09-23T03:13:39.118Z,81.64
2022-09-23T03:16:51.405Z,81.87
2022-09-23T03:20:03.235Z,81.90
2022-09-23T03:22:49.103Z,81.80
2022-09-23T03:25:32.245Z,82.04
2022-09-23T03:28:26.763Z,82.26
2022-09-23T03:31:12.950Z,81.85
2022-09-23T03:33:56.553Z,80.78
2022-09-23T03:37:05.411Z,80.07
2022-09-23T03:40:04.282Z,80.57
2022-09-23T03:42:55.179Z,80.88
2022-09-23T03:46:14.509Z,80.75
2022-09-23T03:49:17.065Z,80.08
2022-09-23T03:51:56.529Z,80.14
2022-09-23T03:54:44.903Z,79.57
2022-09-23T03:57:28.878Z,79.45
2022-09-23T04:00:08.530Z,79.51
2022-09-23T04:02:53.766Z,79.60
2022-09-23T04:05:48.490Z,79.46
2022-09-23T04:08:39.174Z,79.16
2022-09-23T04:11:21.336Z,79.38
2022-09-23T04:14:07.882Z,79.94
2022-09-23T04:16:55.134Z,79.93
2022-09-23T04:19:34.039Z,80.26
2022-09-23T04:22:34.842Z,79.81
2022-09-23T04:25:21.226Z,80.07
2022-09-23T04:28:15.722Z,79.53
2022-09-23T04:31:00.966Z,79.82
2022-09-23T04:33:40.581Z,80.18
2022-09-23T04:36:25.479Z,79.97
2022-09-23T04:39:34.588Z,79.52
2022-09-23T04:42:18.806Z,77.97
2022-09-23T04:44:55.007Z,76.66
2022-09-23T04:47:41.420Z,76.55
2022-09-23T04:50:30.731Z,75.99
2022-09-23T04:53:15.821Z,75.94
2022-09-23T04:56:16.615Z,75.67
2022-09-23T04:58:59.315Z,76.01
2022-09-23T05:01:54.304Z,75.91
2022-09-23T05:04:49.429Z,75.50
2022-09-23T05:07:47.253Z,75.23
2022-09-23T05:10:41.980Z,74.51
2022-09-23T05:13:32.590Z,73.93
2022-09-23T05:16:44.301Z,73.51
2022-09-23T05:19:31.662Z,73.85
2022-09-23T05:22:09.513Z,72.18
2022-09-23T05:25:08.945Z,72.52
2022-09-23T05:27:45.279Z,72.09
2022-09-23T05:30:26.885Z,71.51
2022-09-23T05:33:13.821Z,71.33
2022-09-23T05:36:09.075Z,71.10
2022-09-23T05:38:45.353Z,71.59
2022-09-23T05:41:33.820Z,70.86
2022-09-23T05:44:13.383Z,70.76
2022-09-23T05:47:10.233Z,70.52
2022-09-23T05:50:00.461Z,70.87
2022-09-23T05:52:45.875Z,70.85
2022-09-23T05:55:21.149Z,70.35
2022-09-23T05:58:09.626Z,69.63
2022-09-23T06:03:55.191Z,69.19
2022-09-23T06:06:47.023Z,69.18
2022-09-23T06:09:34.154Z,69.33
2022-09-23T06:12:16.425Z,68.40
2022-09-23T06:15:01.008Z,68.54
2022-09-23T06:17:48.183Z,68.65
2022-09-23T06:20:45.233Z,68.28
2022-09-23T06:29:27.930Z,69.04
2022-09-23T06:32:09.464Z,68.97
2022-09-23T06:34:53.976Z,68.96
2022-09-23T06:37:43.844Z,69.06
2022-09-23T06:40:23.815Z,69.24
2022-09-23T06:43:15.042Z,69.04
2022-09-23T06:45:54.875Z,69.54
2022-09-23T06:51:34.941Z,69.36
2022-09-23T06:55:02.455Z,69.70
2022-09-23T06:57:46.302Z,70.21
2022-09-23T07:00:22.375Z,70.45
2022-09-23T07:03:01.917Z,70.72
2022-09-23T07:05:36.331Z,70.98
2022-09-23T07:08:18.620Z,71.19
2022-09-23T07:11:04.202Z,71.52
2022-09-23T07:14:17.922Z,71.83
2022-09-23T07:20:07.816Z,72.55
2022-09-23T07:22:48.257Z,73.06
2022-09-23T07:25:30.174Z,73.30
2022-09-23T07:28:07.655Z,73.20
2022-09-23T07:31:00.672Z,73.67
2022-09-23T07:33:38.772Z,73.58
2022-09-23T07:36:21.240Z,73.69
2022-09-23T07:39:13.683Z,74.08
2022-09-23T07:45:05.917Z,74.97
2022-09-23T07:47:46.177Z,75.25
2022-09-23T07:50:36.630Z,75.81
2022-09-23T07:53:17.832Z,76.43
2022-09-23T07:56:03.014Z,76.72
2022-09-23T07:58:41.280Z,77.01
2022-09-23T08:01:24.137Z,77.65
2022-09-23T08:04:10.097Z,78.09
2022-09-23T08:06:48.644Z,77.98
2022-09-23T08:09:40.460Z,78.53
2022-09-23T08:12:25.631Z,79.02
2022-09-23T08:15:15.470Z,79.39
2022-09-23T08:18:09.783Z,79.81
2022-09-23T08:20:59.357Z,80.29
2022-09-23T08:23:35.582Z,81.03
2022-09-23T08:26:22.442Z,81.69
2022-09-23T08:29:02.917Z,82.45
2022-09-23T08:31:59.207Z,82.75
2022-09-23T08:34:41.666Z,82.89
2022-09-23T08:37:19.237Z,83.27
2022-09-23T08:39:58.671Z,83.77
2022-09-23T08:42:45.082Z,84.76
2022-09-23T08:45:43.911Z,85.87
2022-09-23T08:48:39.421Z,86.85
2022-09-23T08:51:54.459Z,87.85
2022-09-23T08:54:37.902Z,88.43
2022-09-23T08:57:16.395Z,89.05
2022-09-23T09:00:06.809Z,88.99
2022-09-23T09:02:49.990Z,89.11
2022-09-23T09:05:36.598Z,89.37
2022-09-23T09:08:30.301Z,89.81
2022-09-23T09:14:34.985Z,91.00
2022-09-23T09:17:31.807Z,91.57
2022-09-23T09:20:28.583Z,92.02
2022-09-23T09:23:29.228Z,92.06
2022-09-23T09:26:20.912Z,92.40
2022-09-23T09:29:16.824Z,92.60
2022-09-23T09:32:04.291Z,93.15
2022-09-23T09:34:56.747Z,92.81
2022-09-23T09:37:48.121Z,92.61
2022-09-23T09:40:38.235Z,92.32
2022-09-23T09:43:43.454Z,92.12
2022-09-23T09:46:48.922Z,92.01
2022-09-23T09:49:44.396Z,91.97
2022-09-23T09:52:46.138Z,92.11
2022-09-23T09:55:32.532Z,92.86
2022-09-23T09:58:34.154Z,92.87
2022-09-23T10:07:36.392Z,93.00
2022-09-23T10:10:32.732Z,92.81
2022-09-23T10:13:28.164Z,93.21
2022-09-23T10:16:10.994Z,93.30
2022-09-23T10:19:23.543Z,93.72
2022-09-23T10:22:04.573Z,93.84
2022-09-23T10:24:46.574Z,94.17
2022-09-23T10:27:50.824Z,93.99
2022-09-23T10:30:39.342Z,94.31
2022-09-23T10:33:46.593Z,94.56
2022-09-23T10:36:35.208Z,94.58
2022-09-23T10:39:31.068Z,94.80
2022-09-23T10:42:32.293Z,95.04
2022-09-23T10:45:48.892Z,94.91
2022-09-23T10:48:39.619Z,95.14
2022-09-23T10:51:26.016Z,95.40
2022-09-23T10:54:24.393Z,95.78
2022-09-23T10:57:04.387Z,96.38
2022-09-23T11:00:10.176Z,96.64
2022-09-23T11:03:11.961Z,96.44
2022-09-23T11:06:05.672Z,96.37
2022-09-23T11:08:58.312Z,96.39
2022-09-23T11:11:54.606Z,96.59
2022-09-23T11:15:04.574Z,96.35
2022-09-23T11:18:26.446Z,96.44
2022-09-23T11:22:25.861Z,96.55
2022-09-23T11:25:20.551Z,96.30
2022-09-23T11:28:32.699Z,96.31
2022-09-23T11:31:29.788Z,96.40
2022-09-23T11:34:24.476Z,96.74
2022-09-23T11:37:05.743Z,96.98
2022-09-23T11:40:03.746Z,96.95
2022-09-23T11:42:55.903Z,97.00
2022-09-23T11:45:54.395Z,96.83
2022-09-23T11:48:37.820Z,97.13
2022-09-23T11:51:45.548Z,97.33
2022-09-23T11:54:31.752Z,97.30
2022-09-23T11:57:15.365Z,97.11
2022-09-23T12:00:05.089Z,96.67
2022-09-23T12:03:04.578Z,96.28
2022-09-23T12:05:58.768Z,96.08
2022-09-23T12:08:47.340Z,96.24
2022-09-23T12:11:49.077Z,97.15
2022-09-23T12:14:36.570Z,98.19
2022-09-23T12:17:41.703Z,98.71
2022-09-23T12:20:50.780Z,98.90
2022-09-23T12:23:45.264Z,99.36
2022-09-23T12:26:30.881Z,99.49
2022-09-23T12:29:17.742Z,99.68
2022-09-23T12:32:02.987Z,99.68
2022-09-23T12:35:05.555Z,99.84
2022-09-23T12:40:55.035Z,99.16
2022-09-23T12:43:44.076Z,99.25
2022-09-23T12:46:38.031Z,99.19
2022-09-23T12:49:51.946Z,99.28
2022-09-23T12:56:05.081Z,99.12
2022-09-23T12:59:03.905Z,99.48
2022-09-23T13:01:54.860Z,99.30
2022-09-23T13:05:15.455Z,99.23
2022-09-23T13:08:14.383Z,99.44
2022-09-23T13:10:59.784Z,99.30
2022-09-23T13:13:56.160Z,99.14
2022-09-23T13:16:43.822Z,99.38
2022-09-23T13:20:16.648Z,99.91
2022-09-23T13:23:31.164Z,100.00
2022-09-23T13:26:22.282Z,100.00
2022-09-23T13:29:15.116Z,100.00
2022-09-23T13:35:01.748Z,100.00
2022-09-23T13:37:58.605Z,100.00
2022-09-23T13:40:46.704Z,100.00
2022-09-23T13:43:30.041Z,100.00
2022-09-23T13:46:28.401Z,100.00
2022-09-23T13:49:17.985Z,100.00
2022-09-23T13:52:05.396Z,100.00
2022-09-23T13:55:02.854Z,100.00
2022-09-23T13:57:54.507Z,100.00
2022-09-23T14:00:50.298Z,100.00
2022-09-23T14:03:48.976Z,100.00
2022-09-23T14:06:33.043Z,100.00
2022-09-23T14:09:14.197Z,100.00
2022-09-23T14:11:57.251Z,100.00
2022-09-23T14:14:36.559Z,100.00
2022-09-23T14:17:12.852Z,100.00
2022-09-23T14:20:05.525Z,100.00
2022-09-23T14:22:53.741Z,100.00
2022-09-23T14:25:46.999Z,100.00
2022-09-23T14:28:37.739Z,100.00
2022-09-23T14:31:20.298Z,100.00
2022-09-23T14:33:59.298Z,100.00
2022-09-23T14:37:08.776Z,100.00
2022-09-23T14:40:25.503Z,100.00
2022-09-23T14:43:07.730Z,100.00
2022-09-23T14:45:53.897Z,100.00
2022-09-23T14:48:35.319Z,100.00
2022-09-23T14:51:18.554Z,100.00
2022-09-23T14:54:00.358Z,100.00
2022-09-23T14:56:59.701Z,100.00
2022-09-23T14:59:38.800Z,100.00
2022-09-23T15:02:56.230Z,100.00
2022-09-23T15:05:57.097Z,100.00
2022-09-23T15:08:46.602Z,100.00
2022-09-23T15:14:38.318Z,100.00
2022-09-23T15:17:23.825Z,100.00
2022-09-23T15:20:13.337Z,100.00
2022-09-23T15:23:01.779Z,100.00
2022-09-23T15:25:48.959Z,100.00
2022-09-23T15:28:29.617Z,100.00
2022-09-23T15:31:15.626Z,100.00
2022-09-23T15:34:01.729Z,100.00
2022-09-23T15:36:39.228Z,100.00
2022-09-23T15:39:21.257Z,100.00
2022-09-23T15:42:08.140Z,100.00
2022-09-23T15:44:51.399Z,100.00
2022-09-23T15:47:44.390Z,100.00
2022-09-23T15:50:21.263Z,100.00
2022-09-23T15:53:21.497Z,100.00
2022-09-23T15:56:12.370Z,100.00
2022-09-23T15:58:55.970Z,100.00
2022-09-23T16:01:36.935Z,100.00
2022-09-23T16:04:44.132Z,100.00
2022-09-23T16:07:33.797Z,100.00
2022-09-23T16:10:15.397Z,100.00
2022-09-23T16:12:50.825Z,100.00
2022-09-23T16:15:37.745Z,100.00
2022-09-23T16:18:18.891Z,100.00
2022-09-23T16:21:00.947Z,100.00
2022-09-23T16:23:41.560Z,100.00
2022-09-23T16:26:28.734Z,100.00
2022-09-23T16:29:10.030Z,100.00
2022-09-23T16:32:10.432Z,100.00
2022-09-23T16:34:48.255Z,100.00
2022-09-23T16:37:31.464Z,100.00
2022-09-23T16:40:11.677Z,100.00
2022-09-23T16:42:58.945Z,100.00
2022-09-23T16:45:40.997Z,100.00
2022-09-23T16:48:20.784Z,100.00
2022-09-23T16:51:05.092Z,100.00
2022-09-23T16:53:45.953Z,100.00
2022-09-23T16:56:28.131Z,100.00
2022-09-23T16:59:06.879Z,100.00
2022-09-23T17:02:05.767Z,100.00
2022-09-23T17:04:53.961Z,100.00
2022-09-23T17:07:37.766Z,100.00
2022-09-23T17:10:40.290Z,100.00
2022-09-23T17:13:18.360Z,100.00
2022-09-23T17:15:58.072Z,100.00
2022-09-23T17:18:38.198Z,100.00
2022-09-23T17:21:28.889Z,100.00
2022-09-23T17:24:12.225Z,100.00
2022-09-23T17:27:09.554Z,100.00
2022-09-23T17:29:48.442Z,100.00
2022-09-23T17:32:36.636Z,100.00
2022-09-23T17:35:31.375Z,100.00
2022-09-23T17:38:13.883Z,100.00
2022-09-23T17:41:02.369Z,100.00
2022-09-23T17:44:05.967Z,100.00
2022-09-23T17:46:51.451Z,100.00
2022-09-23T17:49:38.204Z,100.00
2022-09-23T17:52:32.272Z,100.00
2022-09-23T17:55:17.235Z,100.00
2022-09-23T17:58:02.119Z,100.00
2022-09-23T18:00:58.727Z,100.00
2022-09-23T18:03:42.992Z,100.00
2022-09-23T18:06:27.529Z,100.00
2022-09-23T18:09:10.357Z,100.00
2022-09-23T18:12:25.353Z,100.00
2022-09-23T18:15:12.014Z,100.00
2022-09-23T18:17:50.368Z,100.00
2022-09-23T18:20:30.519Z,100.00
2022-09-23T18:23:25.844Z,100.00
2022-09-23T18:26:06.031Z,100.00
2022-09-23T18:28:53.305Z,100.00
2022-09-23T18:31:43.654Z,100.00
2022-09-23T18:34:32.458Z,100.00
2022-09-23T18:37:18.830Z,100.00
2022-09-23T18:39:59.704Z,100.00
2022-09-23T18:42:58.592Z,100.00
2022-09-23T18:46:06.702Z,100.00
2022-09-23T18:48:58.009Z,100.00
2022-09-23T18:52:01.665Z,100.00
2022-09-23T18:57:42.432Z,100.00
2022-09-23T19:00:31.129Z,100.00
2022-09-23T19:03:18.021Z,100.00
2022-09-23T19:06:03.346Z,100.00
2022-09-23T19:09:04.592Z,100.00
2022-09-23T19:11:44.531Z,100.00
2022-09-23T19:14:24.665Z,100.00
2022-09-23T19:17:13.654Z,100.00
2022-09-23T19:19:54.606Z,100.00
2022-09-23T19:22:36.353Z,100.00
2022-09-23T19:25:19.116Z,100.00
2022-09-23T19:28:05.216Z,100.00
2022-09-23T19:30:57.383Z,100.00
2022-09-23T19:33:39.054Z,100.00
2022-09-23T19:36:15.335Z,100.00
2022-09-23T19:39:05.075Z,100.00
2022-09-23T19:41:52.875Z,100.00
2022-09-23T19:44:35.099Z,100.00
2022-09-23T19:47:22.824Z,100.00
2022-09-23T19:50:00.119Z,100.00
2022-09-23T19:52:39.679Z,100.00
2022-09-23T19:55:19.363Z,100.00
2022-09-23T19:58:05.449Z,100.00
2022-09-23T20:00:49.091Z,100.00
2022-09-23T20:03:27.150Z,100.00
2022-09-23T20:06:25.235Z,100.00
2022-09-23T20:09:09.326Z,100.00
2022-09-23T20:11:54.289Z,100.00
2022-09-23T20:14:47.481Z,100.00
2022-09-23T20:17:32.906Z,100.00
2022-09-23T20:20:21.885Z,100.00
2022-09-23T20:23:13.471Z,100.00
2022-09-23T20:26:28.995Z,100.00
2022-09-23T20:29:18.305Z,100.00
2022-09-23T20:32:10.727Z,100.00
2022-09-23T20:34:55.815Z,100.00
2022-09-23T20:37:35.187Z,100.00
2022-09-23T20:40:16.418Z,100.00
2022-09-23T20:43:02.128Z,100.00
2022-09-23T20:45:42.159Z,100.00
2022-09-23T20:48:30.013Z,100.00
2022-09-23T20:51:11.114Z,100.00
2022-09-23T20:53:59.595Z,100.00
2022-09-23T20:56:45.129Z,100.00
2022-09-23T20:59:24.484Z,100.00
2022-09-23T21:02:07.667Z,100.00
2022-09-23T21:05:01.729Z,100.00
2022-09-23T21:07:38.314Z,100.00
2022-09-23T21:10:19.743Z,100.00
2022-09-23T21:13:01.951Z,100.00
2022-09-23T21:15:57.122Z,100.00
2022-09-23T21:19:19.030Z,100.00
2022-09-23T21:22:11.963Z,100.00
2022-09-23T21:25:26.213Z,100.00
2022-09-23T21:30:55.692Z,100.00
2022-09-23T21:33:32.780Z,100.00
2022-09-23T21:36:13.977Z,100.00
2022-09-23T21:39:11.612Z,100.00
2022-09-23T21:41:56.149Z,100.00
2022-09-23T21:44:36.078Z,100.00
2022-09-23T21:47:30.561Z,100.00
2022-09-23T21:50:19.598Z,100.00
2022-09-23T21:53:15.912Z,100.00
2022-09-23T21:56:14.021Z,100.00
2022-09-23T21:59:13.823Z,100.00
2022-09-23T22:01:54.302Z,100.00
2022-09-23T22:04:42.844Z,100.00
2022-09-23T22:07:21.093Z,100.00
2022-09-23T22:10:18.653Z,100.00
2022-09-23T22:13:10.551Z,100.00
2022-09-23T22:16:03.892Z,100.00
2022-09-23T22:18:40.979Z,100.00
2022-09-23T22:21:27.257Z,100.00
2022-09-23T22:24:11.611Z,100.00
2022-09-23T22:27:00.472Z,100.00
2022-09-23T22:32:55.297Z,100.00
2022-09-23T22:35:34.992Z,100.00
2022-09-23T22:38:26.617Z,100.00
2022-09-23T22:41:17.725Z,100.00
2022-09-23T22:44:05.459Z,100.00
2022-09-23T22:47:05.719Z,100.00
2022-09-23T22:49:50.111Z,100.00
2022-09-23T22:52:39.924Z,100.00
2022-09-23T22:55:35.472Z,100.00
2022-09-23T22:58:32.150Z,100.00
2022-09-23T23:01:21.570Z,100.00
2022-09-23T23:04:21.292Z,100.00
2022-09-23T23:07:07.112Z,100.00
2022-09-23T23:10:07.140Z,100.00
2022-09-23T23:12:52.367Z,100.00
2022-09-23T23:15:58.871Z,100.00
2022-09-23T23:18:42.029Z,100.00
2022-09-23T23:21:35.966Z,100.00
2022-09-23T23:24:27.050Z,100.00
2022-09-23T23:27:08.712Z,100.00
2022-09-23T23:29:47.113Z,100.00
2022-09-23T23:32:28.374Z,100.00
2022-09-23T23:35:39.434Z,100.00
2022-09-23T23:38:33.353Z,100.00
2022-09-23T23:41:25.336Z,100.00
2022-09-23T23:44:09.606Z,100.00
2022-09-23T23:46:53.244Z,100.00
2022-09-23T23:49:34.211Z,100.00
2022-09-23T23:52:23.584Z,100.00
2022-09-23T23:55:16.867Z,100.00
2022-09-23T23:57:56.413Z,100.00
